Ardrossan, Canada
Current Conditions -  °F | °C
As of 6:00 AM on Wednesday 22 Oct 2014 (Local Time) from CYXD Reporting Station
Clear Clear  
Wind Chill: 36°   Ceiling: Unl
Heat Index: 39°   Visibility: 9mi
Dew Point: 36°   Wind: 5mph
Humidity: 87%   Direction: 210°SSW
Pressure: 29.7"   Gusts: NA
Location:  53.55°N, 113.13°W
Report Text: CYXD 221200Z AUTO 21004KT 9SM CLR 04/02 A2970 RMK SLP072
Loading
Personal Weather Stations






























Interactive Weather Map
Tropical Storm Tracking
New forecast layout! Learn more

10-Day Weather Forecast

Advertisements
Track Severe Weather on mobile